Time;durP1;ratioP1;P1;durP2;ratioP2;P2;SDS_P1;SDS_P2;PMS_P1;PMS_P2;Temp;Humidity;BMP_temperature;BMP_pressure;BME280_temperature;BME280_humidity;BME280_pressure;Samples;Min_cycle;Max_cycle;Signal;HPM_P1;HPM_P2
2022/09/28 00:00:58;;;;;;;7.55;4.72;;;8.60;99.90;;;;;;6175789;23;20023;-75
2022/09/28 00:03:24;;;;;;;7.68;5.43;;;8.60;99.90;;;;;;6201111;23;20016;-76
2022/09/28 00:05:50;;;;;;;7.40;5.30;;;8.60;99.90;;;;;;6180235;23;20017;-75
2022/09/28 00:08:15;;;;;;;5.85;4.93;;;8.60;99.90;;;;;;6205648;23;20072;-76
2022/09/28 00:10:42;;;;;;;8.50;5.90;;;8.60;99.90;;;;;;6206727;23;20039;-76
2022/09/28 00:13:08;;;;;;;11.02;6.38;;;8.60;99.90;;;;;;6204088;23;20405;-76
2022/09/28 00:15:34;;;;;;;9.75;5.80;;;8.60;99.90;;;;;;6204167;23;20016;-75
2022/09/28 00:18:00;;;;;;;9.70;6.78;;;8.60;99.90;;;;;;6208328;23;20120;-76
2022/09/28 00:20:26;;;;;;;9.85;6.65;;;8.60;99.90;;;;;;6178322;23;20128;-76
2022/09/28 00:22:51;;;;;;;9.95;6.43;;;8.60;99.90;;;;;;6206886;23;20356;-76
2022/09/28 00:25:17;;;;;;;10.25;7.78;;;8.60;99.90;;;;;;6208117;23;20099;-76
2022/09/28 00:27:49;;;;;;;9.20;6.55;;;8.70;99.90;;;;;;6209014;23;20423;-76
2022/09/28 00:30:15;;;;;;;8.77;6.43;;;8.70;99.90;;;;;;6179215;23;20459;-76
2022/09/28 00:32:40;;;;;;;9.57;7.35;;;8.70;99.90;;;;;;6206394;23;20020;-77
2022/09/28 00:35:06;;;;;;;10.40;7.25;;;8.70;99.90;;;;;;6205326;23;20023;-76
2022/09/28 00:37:32;;;;;;;9.48;7.22;;;8.70;99.90;;;;;;6206541;23;20020;-77
2022/09/28 00:39:58;;;;;;;14.05;8.15;;;8.70;99.90;;;;;;6178968;23;20083;-77
2022/09/28 00:42:25;;;;;;;11.60;7.65;;;8.70;99.90;;;;;;6177012;23;20032;-76
2022/09/28 00:44:58;;;;;;;13.18;7.63;;;8.70;99.90;;;;;;6180818;23;20039;-76
2022/09/28 00:47:48;;;;;;;13.35;8.10;;;8.70;99.90;;;;;;6202168;23;20455;-77
2022/09/28 00:50:26;;;;;;;15.48;8.18;;;8.80;99.90;;;;;;6206776;23;20037;-76
2022/09/28 00:53:10;;;;;;;10.70;7.32;;;8.80;99.90;;;;;;6206566;23;20055;-77
2022/09/28 00:55:44;;;;;;;14.05;8.02;;;8.70;99.90;;;;;;6207531;23;20029;-75
2022/09/28 00:58:13;;;;;;;12.10;7.25;;;8.70;99.90;;;;;;6206271;23;20055;-76
2022/09/28 01:00:39;;;;;;;10.93;8.25;;;8.70;99.90;;;;;;6203471;23;20028;-76
2022/09/28 01:03:07;;;;;;;12.13;8.15;;;8.70;99.90;;;;;;6206250;23;20055;-75
2022/09/28 01:05:33;;;;;;;15.43;8.52;;;8.70;99.90;;;;;;6206686;23;20021;-76
2022/09/28 01:08:00;;;;;;;12.15;8.13;;;8.80;99.90;;;;;;6203662;23;20091;-76
2022/09/28 01:10:29;;;;;;;13.20;8.70;;;8.70;99.90;;;;;;6206103;23;20326;-77
2022/09/28 01:12:55;;;;;;;13.02;8.50;;;8.70;99.90;;;;;;6206651;23;20524;-76
2022/09/28 01:15:23;;;;;;;12.20;8.07;;;8.70;99.90;;;;;;6180975;23;20028;-76
2022/09/28 01:17:54;;;;;;;13.32;8.13;;;8.70;99.90;;;;;;6181269;23;20019;-76
2022/09/28 01:20:31;;;;;;;11.18;8.05;;;8.70;99.90;;;;;;6179640;23;20027;-76
2022/09/28 01:23:27;;;;;;;13.30;8.50;;;8.70;99.90;;;;;;6206868;23;20132;-76
2022/09/28 01:26:24;;;;;;;10.35;7.40;;;8.60;99.90;;;;;;6180451;23;20012;-76
2022/09/28 01:29:01;;;;;;;10.35;7.50;;;8.70;99.90;;;;;;6181234;23;20024;-76
2022/09/28 01:31:30;;;;;;;11.20;6.95;;;8.60;99.90;;;;;;6177877;23;20032;-76
2022/09/28 01:34:09;;;;;;;9.88;7.72;;;8.60;99.90;;;;;;6207819;23;20013;-77
2022/09/28 01:36:39;;;;;;;15.27;8.32;;;8.60;99.90;;;;;;6207601;23;20021;-77
2022/09/28 01:39:10;;;;;;;12.25;7.55;;;8.60;99.90;;;;;;6206251;23;20017;-76
2022/09/28 01:41:39;;;;;;;11.80;7.65;;;8.60;99.90;;;;;;6206056;23;20082;-76
2022/09/28 01:44:09;;;;;;;12.68;7.70;;;8.60;99.90;;;;;;6206837;23;20017;-77
2022/09/28 01:46:47;;;;;;;8.57;6.78;;;8.50;99.90;;;;;;6204953;23;20539;-76
2022/09/28 01:49:19;;;;;;;9.65;7.25;;;8.50;99.90;;;;;;6206706;23;20035;-78
2022/09/28 01:52:03;;;;;;;9.60;6.97;;;8.50;99.90;;;;;;6207092;23;20043;-78
2022/09/28 01:54:37;;;;;;;9.98;6.20;;;8.50;99.90;;;;;;6207621;23;20260;-77
2022/09/28 01:57:26;;;;;;;13.13;7.22;;;8.50;99.90;;;;;;6207718;23;20031;-78
2022/09/28 02:00:00;;;;;;;14.23;6.80;;;8.50;99.90;;;;;;6205981;23;20176;-78
2022/09/28 02:02:32;;;;;;;9.98;6.65;;;8.50;99.90;;;;;;6205184;23;20204;-78
2022/09/28 02:05:11;;;;;;;10.82;5.93;;;8.50;99.90;;;;;;6179892;23;20036;-78
2022/09/28 02:07:39;;;;;;;9.82;5.95;;;8.50;99.90;;;;;;6202111;23;20044;-77
2022/09/28 02:10:14;;;;;;;9.13;5.68;;;8.40;99.90;;;;;;6177181;23;20492;-76
2022/09/28 02:12:49;;;;;;;10.00;6.05;;;8.40;99.90;;;;;;6207170;23;20039;-77
2022/09/28 02:15:44;;;;;;;8.40;5.75;;;8.40;99.90;;;;;;6201651;23;20108;-76
2022/09/28 02:18:09;;;;;;;8.65;5.95;;;8.40;99.90;;;;;;6179237;23;20100;-76
2022/09/28 02:20:37;;;;;;;14.32;6.88;;;8.40;99.90;;;;;;6206333;23;20433;-77
2022/09/28 02:23:03;;;;;;;10.40;6.00;;;8.50;99.90;;;;;;6204718;23;20637;-77
2022/09/28 02:25:33;;;;;;;11.20;6.32;;;8.50;99.90;;;;;;6202810;23;20021;-77
2022/09/28 02:28:04;;;;;;;9.25;6.28;;;8.60;99.90;;;;;;6202602;23;20013;-77
2022/09/28 02:30:30;;;;;;;8.65;5.82;;;8.60;99.90;;;;;;6203953;23;20252;-77
2022/09/28 02:33:16;;;;;;;9.98;6.55;;;8.50;99.90;;;;;;6175619;23;20021;-77
2022/09/28 02:35:42;;;;;;;9.70;6.00;;;8.60;99.90;;;;;;6204847;23;20020;-77
2022/09/28 02:38:12;;;;;;;9.00;5.53;;;8.60;99.90;;;;;;6205496;23;20476;-76
2022/09/28 02:40:40;;;;;;;8.30;6.15;;;8.60;99.90;;;;;;6207093;23;20503;-77
2022/09/28 02:43:21;;;;;;;8.60;5.45;;;8.50;99.90;;;;;;6206288;23;20043;-75
2022/09/28 02:45:55;;;;;;;11.63;5.88;;;8.60;99.90;;;;;;6204219;23;20127;-77
2022/09/28 02:48:32;;;;;;;8.45;5.10;;;8.60;99.90;;;;;;6206710;23;20982;-77
2022/09/28 02:51:13;;;;;;;7.95;5.15;;;8.60;99.90;;;;;;6206453;23;20352;-77
2022/09/28 02:54:03;;;;;;;6.70;4.65;;;8.60;99.90;;;;;;6206304;23;20017;-78
2022/09/28 02:56:37;;;;;;;10.63;5.45;;;8.60;99.90;;;;;;6206216;23;20024;-77
2022/09/28 02:59:30;;;;;;;9.15;4.95;;;8.60;99.90;;;;;;6205710;23;20028;-76
2022/09/28 03:02:10;;;;;;;7.90;5.03;;;8.50;99.90;;;;;;6202903;23;20039;-77
2022/09/28 03:04:44;;;;;;;8.85;5.70;;;8.60;99.90;;;;;;6205490;23;20083;-77
2022/09/28 03:07:23;;;;;;;6.80;4.78;;;8.60;99.90;;;;;;6204396;23;20012;-77
2022/09/28 03:09:57;;;;;;;13.43;5.88;;;8.50;99.90;;;;;;6156097;23;20556;-78
2022/09/28 03:12:24;;;;;;;9.43;5.82;;;8.60;99.90;;;;;;6205367;23;20016;-77
2022/09/28 03:15:13;;;;;;;9.65;5.35;;;8.50;99.90;;;;;;6207109;23;20017;-77
2022/09/28 03:17:39;;;;;;;8.20;5.40;;;8.50;99.90;;;;;;6177851;23;20127;-77
2022/09/28 03:20:05;;;;;;;12.00;5.75;;;8.50;99.90;;;;;;6177082;23;20246;-76
2022/09/28 03:22:31;;;;;;;10.30;5.65;;;8.50;99.90;;;;;;6179071;23;20120;-77
2022/09/28 03:24:56;;;;;;;7.82;5.95;;;8.50;99.90;;;;;;6203765;23;20226;-77
2022/09/28 03:27:22;;;;;;;8.65;5.63;;;8.40;99.90;;;;;;6180102;23;20016;-76
2022/09/28 03:29:48;;;;;;;9.02;5.72;;;8.50;99.90;;;;;;6204513;23;20322;-76
2022/09/28 03:32:14;;;;;;;8.15;5.20;;;8.50;99.90;;;;;;6178783;23;20799;-77
2022/09/28 03:34:39;;;;;;;9.88;5.40;;;8.50;99.90;;;;;;6180317;23;20027;-77
2022/09/28 03:37:05;;;;;;;9.80;5.57;;;8.50;99.90;;;;;;6203670;23;20024;-77
2022/09/28 03:39:31;;;;;;;7.18;5.55;;;8.50;99.90;;;;;;6205814;23;20036;-77
2022/09/28 03:41:59;;;;;;;7.50;5.55;;;8.50;99.90;;;;;;6202735;23;20024;-76
2022/09/28 03:44:25;;;;;;;7.93;4.95;;;8.50;99.90;;;;;;6205506;23;20025;-75
2022/09/28 03:46:50;;;;;;;7.57;5.32;;;8.60;99.90;;;;;;6174719;23;20074;-75
2022/09/28 03:49:16;;;;;;;8.35;5.53;;;8.60;99.90;;;;;;6178680;23;20028;-75
2022/09/28 03:51:42;;;;;;;7.05;4.82;;;8.60;99.90;;;;;;6208088;23;20079;-75
2022/09/28 03:54:07;;;;;;;10.55;4.93;;;8.60;99.90;;;;;;6203891;23;20082;-75
2022/09/28 03:56:33;;;;;;;8.55;5.00;;;8.60;99.90;;;;;;6179507;23;20032;-75
2022/09/28 03:59:01;;;;;;;7.07;5.50;;;8.60;99.90;;;;;;6176763;23;20016;-76
2022/09/28 04:01:26;;;;;;;7.95;5.10;;;8.60;99.90;;;;;;6201868;23;20021;-75
2022/09/28 04:03:56;;;;;;;10.05;5.65;;;8.60;99.90;;;;;;6180920;23;20345;-74
2022/09/28 04:06:22;;;;;;;8.27;4.50;;;8.60;99.90;;;;;;6206617;23;20100;-76
2022/09/28 04:08:48;;;;;;;9.95;4.70;;;8.60;99.90;;;;;;6207829;23;20456;-76
2022/09/28 04:11:14;;;;;;;6.10;4.20;;;8.60;99.90;;;;;;6207388;23;20017;-77
2022/09/28 04:13:39;;;;;;;8.10;4.57;;;8.60;99.90;;;;;;6156858;23;20067;-78
2022/09/28 04:16:05;;;;;;;8.60;4.45;;;8.60;99.90;;;;;;6199598;23;20075;-77
2022/09/28 04:18:32;;;;;;;7.22;4.57;;;8.60;99.90;;;;;;6203192;23;20394;-76
2022/09/28 04:21:21;;;;;;;6.13;4.35;;;8.70;99.90;;;;;;6181652;23;20399;-76
2022/09/28 04:23:47;;;;;;;6.85;4.65;;;8.60;99.90;;;;;;6180315;23;20067;-76
2022/09/28 04:26:20;;;;;;;7.80;4.47;;;8.60;99.90;;;;;;6206677;23;20020;-77
2022/09/28 04:31:48;;;;;;;8.07;4.38;;;8.70;99.90;;;;;;6205740;23;20348;-77
2022/09/28 04:34:16;;;;;;;6.03;4.00;;;8.70;99.90;;;;;;6206383;23;20486;-76
2022/09/28 04:36:46;;;;;;;6.88;4.07;;;8.70;99.90;;;;;;6181068;23;20036;-77
2022/09/28 04:39:16;;;;;;;5.55;4.03;;;8.60;99.90;;;;;;6178241;23;20531;-77
2022/09/28 04:41:42;;;;;;;5.88;3.97;;;8.60;99.90;;;;;;6179716;23;20021;-78
2022/09/28 04:44:08;;;;;;;7.68;4.22;;;8.60;99.90;;;;;;6205172;23;20017;-77
2022/09/28 04:46:34;;;;;;;6.47;3.90;;;8.60;99.90;;;;;;6206136;23;20020;-77
2022/09/28 04:49:01;;;;;;;7.40;3.90;;;8.60;99.90;;;;;;6203233;23;20012;-78
2022/09/28 04:51:30;;;;;;;8.43;3.63;;;8.60;99.90;;;;;;6202887;23;20067;-80
2022/09/28 04:53:55;;;;;;;8.10;3.55;;;8.60;99.90;;;;;;6179803;23;20017;-79
2022/09/28 04:56:21;;;;;;;6.47;3.35;;;8.60;99.90;;;;;;6176816;23;20147;-76
2022/09/28 04:58:47;;;;;;;6.82;3.35;;;8.50;99.90;;;;;;6178223;23;20024;-76
2022/09/28 05:01:16;;;;;;;5.85;3.40;;;8.50;99.90;;;;;;6176997;23;20027;-75
2022/09/28 05:03:43;;;;;;;5.20;3.25;;;8.50;99.90;;;;;;6205274;23;20796;-78
2022/09/28 05:06:11;;;;;;;6.50;2.92;;;8.50;99.90;;;;;;6204869;23;20122;-77
2022/09/28 05:08:37;;;;;;;6.35;3.17;;;8.40;99.90;;;;;;6205321;23;20203;-78
2022/09/28 05:11:05;;;;;;;5.57;2.95;;;8.40;99.90;;;;;;6203875;23;20123;-77
2022/09/28 05:13:32;;;;;;;4.80;3.03;;;8.30;99.90;;;;;;6182321;23;20353;-79
2022/09/28 05:15:58;;;;;;;4.60;2.50;;;8.30;99.90;;;;;;6206369;23;20046;-78
2022/09/28 05:18:24;;;;;;;4.72;2.65;;;8.30;99.90;;;;;;6206834;23;20020;-78
2022/09/28 05:20:50;;;;;;;5.95;3.05;;;8.30;99.90;;;;;;6205681;23;20127;-77
2022/09/28 05:23:16;;;;;;;4.53;3.05;;;8.30;99.90;;;;;;6202889;23;20099;-76
2022/09/28 05:25:44;;;;;;;5.55;2.95;;;8.20;99.90;;;;;;6174932;23;20396;-77
2022/09/28 05:28:10;;;;;;;3.97;2.63;;;8.20;99.90;;;;;;6206263;23;20017;-77
2022/09/28 05:30:36;;;;;;;6.15;3.20;;;8.20;99.90;;;;;;6203601;23;20024;-74
2022/09/28 05:33:02;;;;;;;6.32;3.17;;;8.20;99.90;;;;;;6178410;23;20021;-74
2022/09/28 05:35:29;;;;;;;4.53;3.10;;;8.20;99.90;;;;;;6179361;23;20067;-75
2022/09/28 05:37:55;;;;;;;7.03;3.65;;;8.10;99.90;;;;;;6206325;23;20051;-77
2022/09/28 05:40:22;;;;;;;6.97;3.70;;;8.10;99.90;;;;;;6202751;23;20020;-75
2022/09/28 05:42:47;;;;;;;10.02;3.08;;;8.10;99.90;;;;;;6202831;23;20345;-77
2022/09/28 05:45:14;;;;;;;5.00;3.30;;;8.10;99.90;;;;;;6176761;23;20404;-78
2022/09/28 05:47:41;;;;;;;9.73;3.20;;;8.10;99.90;;;;;;6204672;23;20326;-78
2022/09/28 05:50:10;;;;;;;7.75;3.00;;;8.10;99.90;;;;;;6178553;23;20247;-79
2022/09/28 05:52:37;;;;;;;5.25;3.75;;;8.00;99.90;;;;;;6178457;23;20028;-79
2022/09/28 05:55:06;;;;;;;6.43;3.13;;;8.00;99.90;;;;;;6178594;23;20150;-78
2022/09/28 05:57:31;;;;;;;4.18;2.72;;;8.00;99.90;;;;;;6178347;23;20096;-79
2022/09/28 05:59:57;;;;;;;10.48;3.78;;;8.00;99.90;;;;;;6204767;23;20040;-80
2022/09/28 06:02:23;;;;;;;9.23;7.07;;;8.00;99.90;;;;;;6202057;23;20055;-79
2022/09/28 06:04:50;;;;;;;7.32;5.65;;;8.00;99.90;;;;;;6204411;23;20044;-80
2022/09/28 06:07:17;;;;;;;11.25;4.88;;;7.90;99.90;;;;;;6204791;23;20164;-79
2022/09/28 06:09:42;;;;;;;5.85;4.07;;;7.90;99.90;;;;;;6205474;23;20016;-79
2022/09/28 06:12:08;;;;;;;7.50;5.60;;;7.90;99.90;;;;;;6177112;23;20095;-79
2022/09/28 06:14:34;;;;;;;9.27;6.93;;;7.90;99.90;;;;;;6174960;23;20388;-79
2022/09/28 06:16:59;;;;;;;13.02;6.88;;;7.90;99.90;;;;;;6179787;23;20020;-79
2022/09/28 06:19:25;;;;;;;9.02;5.97;;;7.90;99.90;;;;;;6174322;23;20008;-80
2022/09/28 06:21:51;;;;;;;8.95;5.90;;;7.80;99.90;;;;;;6198056;23;20025;-80
2022/09/28 06:24:16;;;;;;;7.13;4.78;;;7.90;99.90;;;;;;6202187;23;20027;-78
2022/09/28 06:26:42;;;;;;;7.97;3.35;;;7.90;99.90;;;;;;6198459;23;20224;-71
2022/09/28 06:29:08;;;;;;;5.00;3.33;;;7.90;99.90;;;;;;6202939;23;20032;-71
2022/09/28 06:31:33;;;;;;;6.38;3.05;;;7.90;99.90;;;;;;6198242;23;20020;-71
2022/09/28 06:34:00;;;;;;;5.88;3.40;;;7.90;99.90;;;;;;6202667;23;20027;-70
2022/09/28 06:36:28;;;;;;;4.95;3.22;;;7.90;99.90;;;;;;6204708;23;20027;-71
2022/09/28 06:38:53;;;;;;;4.13;3.03;;;8.00;99.90;;;;;;6200204;23;20084;-70
2022/09/28 06:41:19;;;;;;;4.07;2.83;;;8.00;99.90;;;;;;6176150;23;20028;-70
2022/09/28 06:43:48;;;;;;;5.57;3.72;;;8.00;99.90;;;;;;6201884;23;20032;-71
2022/09/28 06:46:14;;;;;;;8.32;3.20;;;8.10;99.90;;;;;;6201502;23;20353;-71
2022/09/28 06:48:40;;;;;;;5.95;3.30;;;8.10;99.90;;;;;;6202924;23;20105;-71
2022/09/28 06:51:06;;;;;;;7.03;3.10;;;8.30;99.90;;;;;;6197071;23;20024;-70
2022/09/28 06:53:31;;;;;;;5.22;2.78;;;8.30;99.90;;;;;;6178361;23;20020;-70
2022/09/28 06:55:57;;;;;;;5.07;2.97;;;8.40;99.90;;;;;;6198932;23;20143;-71
2022/09/28 06:58:26;;;;;;;4.50;2.75;;;8.50;99.90;;;;;;6203079;23;20066;-77
2022/09/28 07:00:51;;;;;;;6.68;2.30;;;8.50;99.90;;;;;;6176775;23;20480;-73
2022/09/28 07:03:21;;;;;;;4.15;2.45;;;8.70;99.90;;;;;;6153115;23;20020;-73
2022/09/28 07:05:55;;;;;;;4.03;2.15;;;8.70;99.90;;;;;;6202403;23;20050;-76
2022/09/28 07:08:25;;;;;;;5.40;2.50;;;8.80;99.90;;;;;;6203891;23;20149;-72
2022/09/28 07:10:55;;;;;;;7.13;3.22;;;8.90;99.90;;;;;;6205919;23;20353;-72
2022/09/28 07:13:23;;;;;;;7.75;3.10;;;9.10;99.90;;;;;;6172839;23;20021;-72
2022/09/28 07:15:56;;;;;;;5.93;3.88;;;9.30;99.90;;;;;;6176266;23;20024;-72
2022/09/28 07:18:22;;;;;;;8.25;4.95;;;9.40;99.90;;;;;;6205018;23;20164;-73
2022/09/28 07:20:48;;;;;;;7.97;4.53;;;9.50;99.90;;;;;;6178640;23;20097;-72
2022/09/28 07:23:14;;;;;;;8.20;3.03;;;9.60;99.90;;;;;;6177702;23;20016;-72
2022/09/28 07:25:44;;;;;;;8.32;2.45;;;9.70;99.90;;;;;;6207487;23;20025;-73
2022/09/28 07:28:10;;;;;;;7.10;3.03;;;9.70;99.90;;;;;;6179588;23;20075;-73
2022/09/28 07:30:35;;;;;;;5.32;2.67;;;9.80;99.90;;;;;;6176822;23;20096;-73
2022/09/28 07:33:03;;;;;;;6.80;2.72;;;9.80;99.90;;;;;;6205009;23;20036;-73
2022/09/28 07:35:34;;;;;;;9.98;2.70;;;9.90;99.90;;;;;;6154352;23;20075;-73
2022/09/28 07:38:02;;;;;;;5.85;2.67;;;9.90;99.90;;;;;;6176071;23;20016;-71
2022/09/28 07:43:15;;;;;;;6.38;1.88;;;10.10;99.90;;;;;;6202493;23;20033;-72
2022/09/28 07:45:43;;;;;;;5.43;2.17;;;10.20;99.90;;;;;;6204023;23;20027;-72
2022/09/28 07:48:08;;;;;;;6.28;1.90;;;10.30;99.90;;;;;;6152989;23;20318;-72
2022/09/28 07:50:34;;;;;;;4.30;1.98;;;10.40;99.90;;;;;;6203662;23;20479;-72
2022/09/28 07:53:00;;;;;;;6.82;1.90;;;10.50;99.90;;;;;;6175418;23;20052;-72
2022/09/28 07:55:25;;;;;;;3.95;1.63;;;10.60;99.90;;;;;;6202488;23;20016;-72
2022/09/28 07:58:00;;;;;;;2.95;1.77;;;10.70;99.90;;;;;;6173765;23;20114;-72
2022/09/28 08:00:31;;;;;;;7.03;2.47;;;10.70;99.90;;;;;;6202407;23;20488;-72
2022/09/28 08:03:03;;;;;;;9.02;2.25;;;10.80;99.90;;;;;;6179147;23;20024;-72
2022/09/28 08:05:34;;;;;;;8.05;2.00;;;10.90;99.90;;;;;;6203764;23;20038;-72
2022/09/28 08:08:01;;;;;;;4.22;1.70;;;11.00;99.90;;;;;;6203835;23;20013;-73
2022/09/28 08:10:27;;;;;;;7.25;1.75;;;11.00;99.90;;;;;;6175485;23;20023;-73
2022/09/28 08:13:00;;;;;;;10.15;1.52;;;11.10;99.90;;;;;;6206669;23;20028;-73
2022/09/28 08:15:26;;;;;;;7.97;1.52;;;11.20;99.90;;;;;;6204488;23;20354;-73
2022/09/28 08:17:52;;;;;;;4.95;1.70;;;11.30;99.90;;;;;;6179614;23;20021;-73
2022/09/28 08:23:10;;;;;;;4.32;1.35;;;11.40;99.90;;;;;;6206830;23;20055;-72
2022/09/28 08:25:36;;;;;;;9.05;1.60;;;11.40;99.90;;;;;;6206782;23;20115;-73
2022/09/28 08:28:03;;;;;;;3.30;1.30;;;11.50;99.90;;;;;;6206493;23;20009;-72
2022/09/28 08:30:30;;;;;;;4.30;1.25;;;11.60;99.90;;;;;;6205076;23;20040;-71
2022/09/28 08:32:56;;;;;;;4.68;1.10;;;11.70;99.90;;;;;;6205538;23;20028;-71
2022/09/28 08:35:24;;;;;;;2.58;0.90;;;11.70;99.90;;;;;;6204885;23;20024;-70
2022/09/28 08:37:53;;;;;;;3.85;0.73;;;11.70;99.90;;;;;;6208912;23;20396;-74
2022/09/28 08:40:23;;;;;;;2.80;0.90;;;11.80;99.90;;;;;;6207255;23;20538;-73
2022/09/28 08:42:53;;;;;;;6.57;1.40;;;11.90;99.90;;;;;;6208202;23;20016;-74
2022/09/28 08:45:27;;;;;;;4.05;1.13;;;12.00;99.90;;;;;;6177790;23;20063;-73
2022/09/28 08:51:05;;;;;;;3.30;0.90;;;12.10;99.90;;;;;;6181837;23;20008;-72
2022/09/28 08:53:34;;;;;;;4.25;0.80;;;12.20;99.90;;;;;;6208520;23;20009;-72
2022/09/28 08:56:05;;;;;;;1.40;0.68;;;12.20;99.90;;;;;;6180361;23;20017;-72
2022/09/28 08:58:39;;;;;;;3.08;0.90;;;12.30;99.90;;;;;;6207506;23;20348;-71
2022/09/28 09:01:08;;;;;;;3.42;0.80;;;12.40;99.90;;;;;;6203841;23;20021;-69
2022/09/28 09:03:43;;;;;;;1.90;0.68;;;12.50;99.90;;;;;;6206838;23;20020;-68
2022/09/28 09:06:38;;;;;;;4.82;0.98;;;12.60;99.90;;;;;;6180210;23;20020;-70
2022/09/28 09:09:25;;;;;;;2.70;0.98;;;12.60;99.90;;;;;;6207154;23;20465;-68
2022/09/28 09:12:15;;;;;;;4.97;0.82;;;12.70;99.90;;;;;;6206395;23;20469;-70
2022/09/28 09:14:53;;;;;;;3.58;0.88;;;12.70;99.90;;;;;;6179152;23;20024;-70
2022/09/28 09:17:43;;;;;;;3.83;0.60;;;12.80;99.90;;;;;;6206034;23;20020;-70
2022/09/28 09:20:17;;;;;;;3.38;0.80;;;12.90;99.90;;;;;;6180218;23;20021;-69
2022/09/28 09:22:52;;;;;;;1.17;0.60;;;13.00;99.90;;;;;;6206585;23;20016;-69
2022/09/28 09:25:41;;;;;;;1.83;0.50;;;13.10;99.90;;;;;;6178988;23;20040;-70
2022/09/28 09:28:35;;;;;;;1.40;0.52;;;13.10;99.90;;;;;;6206780;23;20016;-69
2022/09/28 09:31:43;;;;;;;1.40;0.60;;;13.20;99.90;;;;;;6179173;23;20414;-70
2022/09/28 09:34:41;;;;;;;2.28;0.65;;;13.20;99.90;;;;;;6166441;23;20043;-69
2022/09/28 09:37:37;;;;;;;2.30;0.52;;;13.30;99.90;;;;;;6208880;23;20044;-70
2022/09/28 09:40:40;;;;;;;1.48;0.60;;;13.50;99.90;;;;;;6207450;23;20024;-69
2022/09/28 09:43:16;;;;;;;1.25;0.60;;;13.60;99.90;;;;;;6210029;23;20036;-69
2022/09/28 09:45:48;;;;;;;1.65;0.80;;;13.70;99.90;;;;;;6206652;23;20020;-69
2022/09/28 09:48:50;;;;;;;2.65;0.65;;;13.80;99.90;;;;;;6206905;23;20028;-69
2022/09/28 09:51:39;;;;;;;1.60;0.47;;;13.90;99.90;;;;;;6198611;23;20047;-69
2022/09/28 09:54:23;;;;;;;1.55;0.47;;;14.10;99.90;;;;;;6154062;23;20074;-69
2022/09/28 09:56:56;;;;;;;1.42;0.57;;;14.20;99.90;;;;;;6208629;23;20009;-70
2022/09/28 09:59:32;;;;;;;2.13;0.80;;;14.30;99.90;;;;;;6179413;23;20038;-69
2022/09/28 10:02:01;;;;;;;1.90;0.77;;;14.40;99.90;;;;;;6206189;23;20077;-70
2022/09/28 10:04:33;;;;;;;3.65;0.60;;;14.50;99.90;;;;;;6207172;23;20095;-70
2022/09/28 10:07:13;;;;;;;0.90;0.50;;;14.60;99.90;;;;;;6178834;23;20079;-70
2022/09/28 10:09:44;;;;;;;0.93;0.40;;;14.70;99.90;;;;;;6206154;23;20016;-70
2022/09/28 10:12:16;;;;;;;3.10;0.60;;;14.60;99.90;;;;;;6206314;23;20012;-70
2022/09/28 10:14:42;;;;;;;2.15;0.45;;;14.50;99.90;;;;;;6206051;23;20495;-70
2022/09/28 10:17:12;;;;;;;0.90;0.50;;;14.30;99.90;;;;;;6204849;23;20017;-69
2022/09/28 10:19:38;;;;;;;2.00;0.57;;;14.10;99.90;;;;;;6178957;23;20146;-70
2022/09/28 10:22:05;;;;;;;2.45;0.40;;;14.10;99.90;;;;;;6178739;23;20081;-70
2022/09/28 10:24:37;;;;;;;1.13;0.40;;;14.00;99.90;;;;;;6207357;23;20063;-69
2022/09/28 10:27:12;;;;;;;0.97;0.43;;;14.10;99.90;;;;;;6207906;23;20017;-70
2022/09/28 10:30:17;;;;;;;1.58;0.47;;;14.20;99.90;;;;;;6207403;23;20147;-70
2022/09/28 10:32:48;;;;;;;1.05;0.30;;;14.50;99.90;;;;;;6207652;23;20021;-70
2022/09/28 10:35:17;;;;;;;1.40;0.43;;;14.70;99.90;;;;;;6206837;23;20020;-70
2022/09/28 10:38:04;;;;;;;1.63;0.32;;;15.00;99.90;;;;;;6207833;23;20023;-70
2022/09/28 10:40:44;;;;;;;2.33;0.40;;;15.10;99.90;;;;;;6207588;23;20145;-70
2022/09/28 10:43:22;;;;;;;6.03;1.38;;;15.10;99.90;;;;;;6207281;23;20055;-70
2022/09/28 10:45:58;;;;;;;0.52;0.30;;;15.30;99.90;;;;;;6179720;23;20348;-70
2022/09/28 10:48:23;;;;;;;0.38;0.30;;;15.30;99.90;;;;;;6206222;23;20380;-69
2022/09/28 10:51:06;;;;;;;2.58;1.25;;;15.30;99.90;;;;;;6180863;23;20027;-69
2022/09/28 10:53:36;;;;;;;1.23;0.30;;;15.40;99.90;;;;;;6209231;23;20021;-69
2022/09/28 10:56:16;;;;;;;4.88;1.30;;;15.40;99.90;;;;;;6208530;23;20019;-69
2022/09/28 10:58:43;;;;;;;3.65;0.50;;;15.30;99.90;;;;;;6208300;23;20016;-69
2022/09/28 11:01:17;;;;;;;1.55;0.35;;;15.30;99.90;;;;;;6180644;23;20092;-70
2022/09/28 11:04:06;;;;;;;0.65;0.40;;;15.30;99.90;;;;;;6179446;23;20051;-70
2022/09/28 11:06:37;;;;;;;1.83;0.30;;;15.40;99.90;;;;;;6207348;23;20024;-69
2022/09/28 11:09:06;;;;;;;0.77;0.30;;;15.40;99.90;;;;;;6139629;23;20128;-68
2022/09/28 11:11:41;;;;;;;1.58;0.43;;;15.50;99.90;;;;;;6207872;23;20441;-69
2022/09/28 11:14:34;;;;;;;1.67;0.30;;;15.50;99.90;;;;;;6206484;23;20412;-69
2022/09/28 11:17:28;;;;;;;0.98;0.20;;;15.60;99.90;;;;;;6205228;23;20016;-69
2022/09/28 11:20:00;;;;;;;1.48;0.20;;;15.60;99.90;;;;;;6179087;23;20025;-69
2022/09/28 11:22:42;;;;;;;1.25;0.30;;;15.80;99.90;;;;;;6180353;23;20157;-69
2022/09/28 11:25:17;;;;;;;0.50;0.17;;;15.80;99.90;;;;;;6179535;23;20094;-68
2022/09/28 11:27:51;;;;;;;1.00;0.25;;;15.70;99.90;;;;;;6208255;23;20032;-69
2022/09/28 11:30:27;;;;;;;0.52;0.38;;;15.60;99.90;;;;;;6205759;23;20024;-70
2022/09/28 11:32:59;;;;;;;1.27;0.30;;;15.50;99.90;;;;;;6206114;23;20499;-69
2022/09/28 11:35:44;;;;;;;1.27;0.30;;;15.50;99.90;;;;;;6178911;23;20481;-70
2022/09/28 11:38:32;;;;;;;1.27;0.22;;;15.60;99.90;;;;;;6205241;23;20075;-67
2022/09/28 11:41:08;;;;;;;1.67;0.20;;;15.80;99.90;;;;;;6206123;23;20460;-68
2022/09/28 11:43:51;;;;;;;0.10;0.10;;;15.90;99.90;;;;;;6208504;23;20012;-68
2022/09/28 11:46:36;;;;;;;1.70;0.40;;;16.00;99.90;;;;;;6203721;23;20078;-68
2022/09/28 11:49:38;;;;;;;0.60;0.20;;;16.20;99.90;;;;;;6204506;23;20016;-69
2022/09/28 11:52:19;;;;;;;2.07;0.50;;;16.40;99.90;;;;;;6203887;23;20067;-69
2022/09/28 11:54:55;;;;;;;0.77;0.28;;;16.60;99.90;;;;;;6206157;23;20081;-69
2022/09/28 11:57:25;;;;;;;0.28;0.20;;;16.70;99.90;;;;;;6206118;23;20031;-69
2022/09/28 12:00:09;;;;;;;1.58;0.40;;;16.80;99.90;;;;;;6177653;23;20089;-70
2022/09/28 12:02:41;;;;;;;1.88;0.35;;;16.90;99.90;;;;;;6178851;23;20055;-69
2022/09/28 12:05:24;;;;;;;2.55;0.32;;;16.90;99.90;;;;;;6179864;23;20044;-69
2022/09/28 12:07:55;;;;;;;1.02;0.38;;;16.90;99.90;;;;;;6205887;23;20016;-69
2022/09/28 12:10:26;;;;;;;1.42;0.50;;;16.90;99.90;;;;;;6182224;23;20040;-69
2022/09/28 12:13:09;;;;;;;1.80;0.50;;;16.60;99.90;;;;;;6180485;23;20027;-69
2022/09/28 12:15:50;;;;;;;0.65;0.40;;;16.30;99.90;;;;;;6206841;23;20028;-68
2022/09/28 12:18:40;;;;;;;1.15;0.40;;;16.10;99.90;;;;;;6179475;23;20116;-69
2022/09/28 12:21:24;;;;;;;1.30;0.43;;;16.00;99.90;;;;;;6107887;23;20079;-68
2022/09/28 12:23:59;;;;;;;0.98;0.40;;;16.20;99.90;;;;;;6208640;23;20020;-69
2022/09/28 12:27:02;;;;;;;1.85;0.32;;;16.30;99.90;;;;;;6180298;23;20066;-68
2022/09/28 12:29:31;;;;;;;1.80;0.30;;;16.40;99.90;;;;;;6178181;23;20048;-68
2022/09/28 12:32:24;;;;;;;0.65;0.30;;;16.40;99.90;;;;;;6204788;23;20020;-69
2022/09/28 12:34:50;;;;;;;0.90;0.30;;;16.60;99.90;;;;;;6179776;23;20024;-70
2022/09/28 12:37:34;;;;;;;2.65;0.50;;;16.70;99.90;;;;;;6207043;23;20020;-70
2022/09/28 12:40:21;;;;;;;1.50;0.30;;;16.80;99.90;;;;;;6206583;23;20408;-68
2022/09/28 12:43:16;;;;;;;2.17;0.50;;;16.90;99.90;;;;;;6207717;23;20092;-69
2022/09/28 12:45:50;;;;;;;1.10;0.47;;;16.90;99.90;;;;;;6178883;23;20038;-70
2022/09/28 12:48:44;;;;;;;1.17;0.40;;;16.70;99.90;;;;;;6206471;23;20448;-70
2022/09/28 12:51:31;;;;;;;2.53;0.43;;;16.40;99.90;;;;;;6206662;23;20008;-69
2022/09/28 12:54:17;;;;;;;2.47;0.40;;;16.10;99.90;;;;;;6185491;23;20328;-68
2022/09/28 12:57:21;;;;;;;1.35;0.50;;;15.90;99.90;;;;;;6208143;23;20055;-70
2022/09/28 13:00:05;;;;;;;2.03;0.47;;;15.60;99.90;;;;;;6179398;23;20020;-69
2022/09/28 13:02:50;;;;;;;3.70;0.60;;;15.40;99.90;;;;;;6207115;23;20032;-68
2022/09/28 13:05:43;;;;;;;0.95;0.50;;;15.20;99.90;;;;;;6209207;23;20468;-69
2022/09/28 13:08:46;;;;;;;2.20;0.60;;;15.10;99.90;;;;;;6205466;23;20487;-70
2022/09/28 13:11:32;;;;;;;0.93;0.35;;;15.00;99.90;;;;;;6208255;23;20029;-69
2022/09/28 13:14:27;;;;;;;2.67;0.45;;;14.80;99.90;;;;;;6206929;23;20025;-70
2022/09/28 13:17:09;;;;;;;1.55;0.50;;;14.80;99.90;;;;;;6206141;23;20086;-70
2022/09/28 13:19:56;;;;;;;0.28;0.20;;;14.70;99.90;;;;;;6207794;23;20079;-70
2022/09/28 13:22:48;;;;;;;2.05;0.60;;;14.90;99.90;;;;;;6209288;23;20017;-69
2022/09/28 13:25:20;;;;;;;1.67;0.50;;;15.20;99.90;;;;;;6142226;23;20028;-69
2022/09/28 13:28:05;;;;;;;2.83;0.40;;;15.40;99.90;;;;;;6183956;23;20017;-69
2022/09/28 13:30:37;;;;;;;4.93;0.50;;;15.60;99.90;;;;;;6208688;23;20022;-70
2022/09/28 13:33:06;;;;;;;1.73;0.50;;;15.80;99.90;;;;;;6209732;23;20016;-68